sensor_id;sensor_type;location;lat;lon;timestamp;pressure;altitude;pressure_sealevel;temperature;humidity
50734;BME280;36701;51.798;19.474;2022-07-12T00:00:19;99106.19;;;15.14;100.00
50734;BME280;36701;51.798;19.474;2022-07-12T00:03:02;99108.63;;;15.16;100.00
50734;BME280;36701;51.798;19.474;2022-07-12T00:05:28;99108.00;;;15.29;100.00
50734;BME280;36701;51.798;19.474;2022-07-12T00:07:55;99079.69;;;14.91;100.00
50734;BME280;36701;51.798;19.474;2022-07-12T00:10:21;99111.59;;;15.09;100.00
50734;BME280;36701;51.798;19.474;2022-07-12T00:12:47;99104.00;;;15.06;100.00
50734;BME280;36701;51.798;19.474;2022-07-12T00:15:21;99088.06;;;14.94;100.00
50734;BME280;36701;51.798;19.474;2022-07-12T00:17:47;99121.88;;;15.22;100.00
50734;BME280;36701;51.798;19.474;2022-07-12T00:20:13;99122.84;;;15.42;100.00
50734;BME280;36701;51.798;19.474;2022-07-12T00:22:40;99069.81;;;15.15;100.00
50734;BME280;36701;51.798;19.474;2022-07-12T00:25:07;99040.59;;;15.02;100.00
50734;BME280;36701;51.798;19.474;2022-07-12T00:27:33;99083.09;;;15.17;100.00
50734;BME280;36701;51.798;19.474;2022-07-12T00:30:00;99116.91;;;15.40;100.00
50734;BME280;36701;51.798;19.474;2022-07-12T00:32:26;99116.91;;;15.40;100.00
50734;BME280;36701;51.798;19.474;2022-07-12T00:34:59;99121.16;;;15.56;100.00
50734;BME280;36701;51.798;19.474;2022-07-12T00:37:26;99073.63;;;15.09;100.00
50734;BME280;36701;51.798;19.474;2022-07-12T00:39:52;99076.88;;;15.16;100.00
50734;BME280;36701;51.798;19.474;2022-07-12T00:42:19;99121.19;;;15.51;100.00
50734;BME280;36701;51.798;19.474;2022-07-12T00:44:45;99083.31;;;15.31;100.00
50734;BME280;36701;51.798;19.474;2022-07-12T00:47:34;99075.78;;;15.17;100.00
50734;BME280;36701;51.798;19.474;2022-07-12T00:50:14;99120.72;;;15.34;100.00
50734;BME280;36701;51.798;19.474;2022-07-12T00:52:42;99121.84;;;15.28;100.00
50734;BME280;36701;51.798;19.474;2022-07-12T00:55:11;99097.25;;;15.08;100.00
50734;BME280;36701;51.798;19.474;2022-07-12T00:57:38;99119.34;;;15.41;100.00
50734;BME280;36701;51.798;19.474;2022-07-12T01:00:07;99093.63;;;15.23;100.00
50734;BME280;36701;51.798;19.474;2022-07-12T01:02:35;99124.97;;;15.50;100.00
50734;BME280;36701;51.798;19.474;2022-07-12T01:05:04;99096.28;;;15.39;100.00
50734;BME280;36701;51.798;19.474;2022-07-12T01:07:30;99089.78;;;15.35;100.00
50734;BME280;36701;51.798;19.474;2022-07-12T01:09:58;99116.78;;;15.60;100.00
50734;BME280;36701;51.798;19.474;2022-07-12T01:12:25;99111.38;;;15.55;100.00
50734;BME280;36701;51.798;19.474;2022-07-12T01:14:51;99122.75;;;15.62;100.00
50734;BME280;36701;51.798;19.474;2022-07-12T01:17:23;99124.91;;;15.66;100.00
50734;BME280;36701;51.798;19.474;2022-07-12T01:19:53;99075.12;;;15.36;100.00
50734;BME280;36701;51.798;19.474;2022-07-12T01:22:25;99125.50;;;15.57;100.00
50734;BME280;36701;51.798;19.474;2022-07-12T01:24:53;99112.94;;;15.67;100.00
50734;BME280;36701;51.798;19.474;2022-07-12T01:27:19;99109.78;;;15.54;100.00
50734;BME280;36701;51.798;19.474;2022-07-12T01:29:46;99111.09;;;15.62;100.00
50734;BME280;36701;51.798;19.474;2022-07-12T01:32:12;99108.69;;;15.50;100.00
50734;BME280;36701;51.798;19.474;2022-07-12T01:34:56;99105.22;;;15.44;100.00
50734;BME280;36701;51.798;19.474;2022-07-12T01:37:25;99108.44;;;15.47;100.00
50734;BME280;36701;51.798;19.474;2022-07-12T01:39:56;99110.94;;;15.38;100.00
50734;BME280;36701;51.798;19.474;2022-07-12T01:42:24;99108.22;;;15.38;100.00
50734;BME280;36701;51.798;19.474;2022-07-12T01:44:52;99107.06;;;15.49;100.00
50734;BME280;36701;51.798;19.474;2022-07-12T01:47:19;99100.03;;;15.48;100.00
50734;BME280;36701;51.798;19.474;2022-07-12T01:49:46;99108.25;;;15.33;100.00
50734;BME280;36701;51.798;19.474;2022-07-12T01:52:13;99109.34;;;15.26;100.00
50734;BME280;36701;51.798;19.474;2022-07-12T01:54:40;99108.63;;;15.16;100.00
50734;BME280;36701;51.798;19.474;2022-07-12T01:57:07;99098.62;;;15.01;100.00
50734;BME280;36701;51.798;19.474;2022-07-12T01:59:33;99087.25;;;14.99;100.00
50734;BME280;36701;51.798;19.474;2022-07-12T02:02:00;99069.91;;;15.00;100.00
50734;BME280;36701;51.798;19.474;2022-07-12T02:04:29;99061.25;;;14.93;100.00
50734;BME280;36701;51.798;19.474;2022-07-12T02:06:56;99105.03;;;15.25;100.00
50734;BME280;36701;51.798;19.474;2022-07-12T02:09:23;99102.88;;;15.22;100.00
50734;BME280;36701;51.798;19.474;2022-07-12T02:11:49;99067.16;;;15.05;100.00
50734;BME280;36701;51.798;19.474;2022-07-12T02:14:16;99108.78;;;15.35;100.00
50734;BME280;36701;51.798;19.474;2022-07-12T02:16:43;99102.81;;;15.33;100.00
50734;BME280;36701;51.798;19.474;2022-07-12T02:19:11;99049.91;;;14.85;100.00
50734;BME280;36701;51.798;19.474;2022-07-12T02:21:38;99064.19;;;14.96;100.00
50734;BME280;36701;51.798;19.474;2022-07-12T02:24:11;99100.44;;;15.21;100.00
50734;BME280;36701;51.798;19.474;2022-07-12T02:26:37;99070.97;;;14.99;100.00
50734;BME280;36701;51.798;19.474;2022-07-12T02:29:05;99102.31;;;15.25;100.00
50734;BME280;36701;51.798;19.474;2022-07-12T02:31:32;99060.38;;;15.02;100.00
50734;BME280;36701;51.798;19.474;2022-07-12T02:33:58;99100.72;;;15.19;100.00
50734;BME280;36701;51.798;19.474;2022-07-12T02:36:25;99059.06;;;14.95;100.00
50734;BME280;36701;51.798;19.474;2022-07-12T02:38:51;99095.81;;;15.21;100.00
50734;BME280;36701;51.798;19.474;2022-07-12T02:41:17;99054.47;;;14.95;100.00
50734;BME280;36701;51.798;19.474;2022-07-12T02:43:44;99088.53;;;15.17;100.00
50734;BME280;36701;51.798;19.474;2022-07-12T02:46:12;99100.19;;;15.17;100.00
50734;BME280;36701;51.798;19.474;2022-07-12T02:48:41;99088.03;;;15.10;100.00
50734;BME280;36701;51.798;19.474;2022-07-12T02:51:08;99068.81;;;14.96;100.00
50734;BME280;36701;51.798;19.474;2022-07-12T02:53:36;99078.50;;;15.12;100.00
50734;BME280;36701;51.798;19.474;2022-07-12T02:56:02;99078.50;;;15.17;100.00
50734;BME280;36701;51.798;19.474;2022-07-12T02:58:29;99078.19;;;15.24;100.00
50734;BME280;36701;51.798;19.474;2022-07-12T03:00:55;98997.59;;;14.80;100.00
50734;BME280;36701;51.798;19.474;2022-07-12T03:03:22;99038.72;;;14.97;100.00
50734;BME280;36701;51.798;19.474;2022-07-12T03:05:48;99068.22;;;15.09;100.00
50734;BME280;36701;51.798;19.474;2022-07-12T03:08:21;99078.50;;;15.17;100.00
50734;BME280;36701;51.798;19.474;2022-07-12T03:10:47;99080.06;;;15.29;100.00
50734;BME280;36701;51.798;19.474;2022-07-12T03:13:14;99045.69;;;15.14;100.00
50734;BME280;36701;51.798;19.474;2022-07-12T03:15:41;99072.47;;;15.31;100.00
50734;BME280;36701;51.798;19.474;2022-07-12T03:18:07;99058.41;;;15.18;100.00
50734;BME280;36701;51.798;19.474;2022-07-12T03:20:33;99077.34;;;15.29;100.00
50734;BME280;36701;51.798;19.474;2022-07-12T03:23:00;99080.34;;;15.22;100.00
50734;BME280;36701;51.798;19.474;2022-07-12T03:25:26;99047.69;;;14.93;100.00
50734;BME280;36701;51.798;19.474;2022-07-12T03:27:53;99088.78;;;15.15;100.00
50734;BME280;36701;51.798;19.474;2022-07-12T03:30:20;99059.62;;;14.92;100.00
50734;BME280;36701;51.798;19.474;2022-07-12T03:32:46;99083.94;;;15.17;100.00
50734;BME280;36701;51.798;19.474;2022-07-12T03:35:13;99034.28;;;14.41;100.00
50734;BME280;36701;51.798;19.474;2022-07-12T03:37:50;99085.13;;;14.91;100.00
50734;BME280;36701;51.798;19.474;2022-07-12T03:40:19;99089.34;;;15.12;100.00
50734;BME280;36701;51.798;19.474;2022-07-12T03:42:46;99091.00;;;15.08;100.00
50734;BME280;36701;51.798;19.474;2022-07-12T03:45:14;99092.06;;;15.17;100.00
50734;BME280;36701;51.798;19.474;2022-07-12T03:47:41;99051.47;;;14.97;100.00
50734;BME280;36701;51.798;19.474;2022-07-12T03:50:09;99087.09;;;15.30;100.00
50734;BME280;36701;51.798;19.474;2022-07-12T03:52:36;99075.88;;;14.97;100.00
50734;BME280;36701;51.798;19.474;2022-07-12T03:55:04;99081.22;;;15.17;100.00
50734;BME280;36701;51.798;19.474;2022-07-12T03:57:30;99036.56;;;14.94;100.00
50734;BME280;36701;51.798;19.474;2022-07-12T03:59:57;99066.59;;;15.03;100.00
50734;BME280;36701;51.798;19.474;2022-07-12T04:02:24;99035.22;;;14.97;100.00
50734;BME280;36701;51.798;19.474;2022-07-12T04:04:51;99065.25;;;15.05;100.00
50734;BME280;36701;51.798;19.474;2022-07-12T04:07:18;99064.34;;;15.20;100.00
50734;BME280;36701;51.798;19.474;2022-07-12T04:09:45;99065.47;;;15.19;100.00
50734;BME280;36701;51.798;19.474;2022-07-12T04:12:11;99058.97;;;15.15;100.00
50734;BME280;36701;51.798;19.474;2022-07-12T04:14:37;99056.94;;;15.41;100.00
50734;BME280;36701;51.798;19.474;2022-07-12T04:17:04;99062.38;;;15.41;100.00
50734;BME280;36701;51.798;19.474;2022-07-12T04:19:32;99013.97;;;15.09;100.00
50734;BME280;36701;51.798;19.474;2022-07-12T04:21:59;99010.31;;;14.84;100.00
50734;BME280;36701;51.798;19.474;2022-07-12T04:24:25;99056.41;;;14.74;100.00
50734;BME280;36701;51.798;19.474;2022-07-12T04:26:52;99049.63;;;14.82;100.00
50734;BME280;36701;51.798;19.474;2022-07-12T04:29:19;99064.88;;;14.57;100.00
50734;BME280;36701;51.798;19.474;2022-07-12T04:31:45;99042.78;;;14.95;100.00
50734;BME280;36701;51.798;19.474;2022-07-12T04:34:12;99024.38;;;14.97;100.00
50734;BME280;36701;51.798;19.474;2022-07-12T04:36:46;99035.47;;;15.00;100.00
50734;BME280;36701;51.798;19.474;2022-07-12T04:39:13;98998.38;;;14.91;100.00
50734;BME280;36701;51.798;19.474;2022-07-12T04:41:40;99055.66;;;15.23;100.00
50734;BME280;36701;51.798;19.474;2022-07-12T04:44:06;99055.41;;;15.20;100.00
50734;BME280;36701;51.798;19.474;2022-07-12T04:46:33;99053.22;;;15.22;100.00
50734;BME280;36701;51.798;19.474;2022-07-12T04:49:00;99030.06;;;14.95;100.00
50734;BME280;36701;51.798;19.474;2022-07-12T04:51:26;99030.56;;;15.02;100.00
50734;BME280;36701;51.798;19.474;2022-07-12T04:53:54;99074.66;;;15.29;100.00
50734;BME280;36701;51.798;19.474;2022-07-12T04:56:20;99051.38;;;15.17;100.00
50734;BME280;36701;51.798;19.474;2022-07-12T04:58:46;99015.66;;;15.05;100.00
50734;BME280;36701;51.798;19.474;2022-07-12T05:01:13;99008.59;;;15.04;100.00
50734;BME280;36701;51.798;19.474;2022-07-12T05:03:40;99064.78;;;15.43;100.00
50734;BME280;36701;51.798;19.474;2022-07-12T05:06:08;99010.09;;;15.25;100.00
50734;BME280;36701;51.798;19.474;2022-07-12T05:08:34;99019.84;;;15.32;100.00
50734;BME280;36701;51.798;19.474;2022-07-12T05:11:01;99015.53;;;15.25;100.00
50734;BME280;36701;51.798;19.474;2022-07-12T05:13:27;99056.81;;;15.62;100.00
50734;BME280;36701;51.798;19.474;2022-07-12T05:15:54;99019.25;;;15.35;100.00
50734;BME280;36701;51.798;19.474;2022-07-12T05:18:20;99047.31;;;15.59;100.00
50734;BME280;36701;51.798;19.474;2022-07-12T05:20:46;99023.03;;;15.39;100.00
50734;BME280;36701;51.798;19.474;2022-07-12T05:23:13;99027.38;;;15.40;100.00
50734;BME280;36701;51.798;19.474;2022-07-12T05:25:40;99023.91;;;15.69;100.00
50734;BME280;36701;51.798;19.474;2022-07-12T05:28:06;99079.28;;;16.07;100.00
50734;BME280;36701;51.798;19.474;2022-07-12T05:30:33;99071.47;;;15.95;100.00
50734;BME280;36701;51.798;19.474;2022-07-12T05:32:59;99061.97;;;15.98;100.00
50734;BME280;36701;51.798;19.474;2022-07-12T05:35:26;99069.03;;;16.28;100.00
50734;BME280;36701;51.798;19.474;2022-07-12T05:37:53;99062.22;;;16.31;100.00
50734;BME280;36701;51.798;19.474;2022-07-12T05:40:20;99023.47;;;16.20;100.00
50734;BME280;36701;51.798;19.474;2022-07-12T05:42:53;99053.53;;;16.29;100.00
50734;BME280;36701;51.798;19.474;2022-07-12T05:45:20;99063.53;;;16.39;100.00
50734;BME280;36701;51.798;19.474;2022-07-12T05:47:48;99068.00;;;16.24;100.00
50734;BME280;36701;51.798;19.474;2022-07-12T05:50:15;99057.66;;;16.26;100.00
50734;BME280;36701;51.798;19.474;2022-07-12T05:52:41;99056.75;;;16.07;100.00
50734;BME280;36701;51.798;19.474;2022-07-12T05:55:26;99055.69;;;16.03;100.00
50734;BME280;36701;51.798;19.474;2022-07-12T05:57:53;99050.69;;;16.15;100.00
50734;BME280;36701;51.798;19.474;2022-07-12T06:00:19;99066.06;;;15.95;100.00
50734;BME280;36701;51.798;19.474;2022-07-12T06:02:45;99052.91;;;16.08;100.00
50734;BME280;36701;51.798;19.474;2022-07-12T06:05:19;99033.13;;;16.07;100.00
50734;BME280;36701;51.798;19.474;2022-07-12T06:07:45;99031.19;;;16.08;100.00
50734;BME280;36701;51.798;19.474;2022-07-12T06:10:11;99045.22;;;16.20;100.00
50734;BME280;36701;51.798;19.474;2022-07-12T06:12:38;99010.03;;;16.05;100.00
50734;BME280;36701;51.798;19.474;2022-07-12T06:15:05;99047.59;;;16.27;100.00
50734;BME280;36701;51.798;19.474;2022-07-12T06:17:33;99039.66;;;16.30;100.00
50734;BME280;36701;51.798;19.474;2022-07-12T06:19:59;99034.81;;;16.27;100.00
50734;BME280;36701;51.798;19.474;2022-07-12T06:22:26;99044.22;;;16.40;100.00
50734;BME280;36701;51.798;19.474;2022-07-12T06:24:52;99038.56;;;16.31;100.00
50734;BME280;36701;51.798;19.474;2022-07-12T06:27:25;99045.44;;;16.53;100.00
50734;BME280;36701;51.798;19.474;2022-07-12T06:29:51;99060.91;;;16.77;100.00
50734;BME280;36701;51.798;19.474;2022-07-12T06:32:17;99008.81;;;16.45;100.00
50734;BME280;36701;51.798;19.474;2022-07-12T06:34:44;99062.09;;;16.70;100.00
50734;BME280;36701;51.798;19.474;2022-07-12T06:37:10;99044.56;;;16.82;100.00
50734;BME280;36701;51.798;19.474;2022-07-12T06:39:38;99045.12;;;16.79;100.00
50734;BME280;36701;51.798;19.474;2022-07-12T06:42:05;99014.81;;;16.66;100.00
50734;BME280;36701;51.798;19.474;2022-07-12T06:44:33;99045.22;;;16.98;100.00
50734;BME280;36701;51.798;19.474;2022-07-12T06:46:59;99000.06;;;16.73;100.00
50734;BME280;36701;51.798;19.474;2022-07-12T06:49:26;98997.13;;;16.93;100.00
50734;BME280;36701;51.798;19.474;2022-07-12T06:51:53;99038.88;;;17.21;100.00
50734;BME280;36701;51.798;19.474;2022-07-12T06:54:19;99040.37;;;17.14;100.00
50734;BME280;36701;51.798;19.474;2022-07-12T06:56:45;98996.41;;;17.06;100.00
50734;BME280;36701;51.798;19.474;2022-07-12T06:59:12;99006.41;;;17.30;100.00
50734;BME280;36701;51.798;19.474;2022-07-12T07:01:38;99041.78;;;17.49;100.00
50734;BME280;36701;51.798;19.474;2022-07-12T07:04:06;98970.16;;;16.97;100.00
50734;BME280;36701;51.798;19.474;2022-07-12T07:06:32;99008.53;;;17.14;100.00
50734;BME280;36701;51.798;19.474;2022-07-12T07:08:58;99027.41;;;17.43;100.00
50734;BME280;36701;51.798;19.474;2022-07-12T07:11:25;98860.81;;;16.38;100.00
50734;BME280;36701;51.798;19.474;2022-07-12T07:13:52;99048.16;;;17.20;100.00
50734;BME280;36701;51.798;19.474;2022-07-12T07:16:19;98987.81;;;17.18;100.00
50734;BME280;36701;51.798;19.474;2022-07-12T07:18:48;99031.97;;;17.67;100.00
50734;BME280;36701;51.798;19.474;2022-07-12T07:21:14;98999.12;;;17.25;100.00
50734;BME280;36701;51.798;19.474;2022-07-12T07:23:41;98998.00;;;17.46;100.00
50734;BME280;36701;51.798;19.474;2022-07-12T07:26:07;99017.16;;;17.73;100.00
50734;BME280;36701;51.798;19.474;2022-07-12T07:28:34;98986.78;;;17.66;100.00
50734;BME280;36701;51.798;19.474;2022-07-12T07:31:20;99042.56;;;17.88;100.00
50734;BME280;36701;51.798;19.474;2022-07-12T07:33:46;99033.59;;;17.68;100.00
50734;BME280;36701;51.798;19.474;2022-07-12T07:36:13;99029.19;;;18.05;100.00
50734;BME280;36701;51.798;19.474;2022-07-12T07:38:39;98989.53;;;17.99;100.00
50734;BME280;36701;51.798;19.474;2022-07-12T07:41:06;99026.91;;;18.26;100.00
50734;BME280;36701;51.798;19.474;2022-07-12T07:43:32;99039.84;;;18.48;100.00
50734;BME280;36701;51.798;19.474;2022-07-12T07:45:59;99012.34;;;18.17;100.00
50734;BME280;36701;51.798;19.474;2022-07-12T07:48:28;99007.75;;;18.45;100.00
50734;BME280;36701;51.798;19.474;2022-07-12T07:50:55;99063.87;;;18.60;100.00
50734;BME280;36701;51.798;19.474;2022-07-12T07:53:23;99010.87;;;18.39;100.00
50734;BME280;36701;51.798;19.474;2022-07-12T07:55:50;99027.13;;;18.44;100.00
50734;BME280;36701;51.798;19.474;2022-07-12T07:58:16;99002.09;;;18.42;100.00
50734;BME280;36701;51.798;19.474;2022-07-12T08:00:42;99035.88;;;18.87;100.00
50734;BME280;36701;51.798;19.474;2022-07-12T08:03:09;99051.41;;;19.01;100.00
50734;BME280;36701;51.798;19.474;2022-07-12T08:05:35;99044.53;;;19.03;100.00
50734;BME280;36701;51.798;19.474;2022-07-12T08:08:01;98994.72;;;18.56;100.00
50734;BME280;36701;51.798;19.474;2022-07-12T08:10:28;99033.59;;;18.62;100.00
50734;BME280;36701;51.798;19.474;2022-07-12T08:12:54;99047.53;;;18.74;100.00
50734;BME280;36701;51.798;19.474;2022-07-12T08:15:22;99065.34;;;18.85;100.00
50734;BME280;36701;51.798;19.474;2022-07-12T08:17:48;99043.28;;;18.68;100.00
50734;BME280;36701;51.798;19.474;2022-07-12T08:20:14;99020.38;;;18.69;100.00
50734;BME280;36701;51.798;19.474;2022-07-12T08:22:45;99013.22;;;18.73;100.00
50734;BME280;36701;51.798;19.474;2022-07-12T08:25:12;99060.88;;;19.17;100.00
50734;BME280;36701;51.798;19.474;2022-07-12T08:27:38;98995.34;;;18.67;100.00
50734;BME280;36701;51.798;19.474;2022-07-12T08:30:06;98997.16;;;18.58;100.00
50734;BME280;36701;51.798;19.474;2022-07-12T08:32:46;99025.72;;;18.60;100.00
50734;BME280;36701;51.798;19.474;2022-07-12T08:35:13;99062.50;;;18.63;100.00
50734;BME280;36701;51.798;19.474;2022-07-12T08:37:43;99022.69;;;18.48;100.00
50734;BME280;36701;51.798;19.474;2022-07-12T08:40:09;99065.34;;;18.72;100.00
50734;BME280;36701;51.798;19.474;2022-07-12T08:42:40;99023.59;;;18.71;100.00
50734;BME280;36701;51.798;19.474;2022-07-12T08:45:14;99054.31;;;18.91;100.00
50734;BME280;36701;51.798;19.474;2022-07-12T08:47:41;99036.00;;;19.05;100.00
50734;BME280;36701;51.798;19.474;2022-07-12T08:50:16;99064.13;;;19.19;100.00
50734;BME280;36701;51.798;19.474;2022-07-12T08:52:51;99041.81;;;19.40;100.00
50734;BME280;36701;51.798;19.474;2022-07-12T08:57:59;99041.63;;;19.36;100.00
50734;BME280;36701;51.798;19.474;2022-07-12T09:00:26;99075.28;;;19.32;100.00
50734;BME280;36701;51.798;19.474;2022-07-12T09:02:58;99014.78;;;19.16;100.00
50734;BME280;36701;51.798;19.474;2022-07-12T09:05:32;99072.09;;;19.52;100.00
50734;BME280;36701;51.798;19.474;2022-07-12T09:10:34;99029.34;;;19.11;100.00
50734;BME280;36701;51.798;19.474;2022-07-12T09:13:00;99033.75;;;19.21;100.00
50734;BME280;36701;51.798;19.474;2022-07-12T09:15:27;99019.72;;;19.28;100.00
50734;BME280;36701;51.798;19.474;2022-07-12T09:20:50;99045.59;;;19.89;100.00
50734;BME280;36701;51.798;19.474;2022-07-12T09:23:15;99052.81;;;19.85;100.00
50734;BME280;36701;51.798;19.474;2022-07-12T09:25:46;99049.22;;;19.62;100.00
50734;BME280;36701;51.798;19.474;2022-07-12T09:28:13;99040.59;;;19.69;100.00
50734;BME280;36701;51.798;19.474;2022-07-12T09:30:52;99051.28;;;19.56;100.00
50734;BME280;36701;51.798;19.474;2022-07-12T09:33:20;99060.47;;;19.83;100.00
50734;BME280;36701;51.798;19.474;2022-07-12T09:36:06;99043.47;;;19.86;100.00
50734;BME280;36701;51.798;19.474;2022-07-12T09:38:38;99039.66;;;19.73;100.00
50734;BME280;36701;51.798;19.474;2022-07-12T09:41:06;99033.72;;;19.71;100.00
50734;BME280;36701;51.798;19.474;2022-07-12T09:43:33;99071.31;;;20.11;100.00
50734;BME280;36701;51.798;19.474;2022-07-12T09:46:00;99059.16;;;19.94;100.00
50734;BME280;36701;51.798;19.474;2022-07-12T09:48:27;99057.94;;;20.09;100.00
50734;BME280;36701;51.798;19.474;2022-07-12T09:50:57;99043.56;;;20.26;100.00
50734;BME280;36701;51.798;19.474;2022-07-12T09:53:41;99061.53;;;20.50;100.00
50734;BME280;36701;51.798;19.474;2022-07-12T09:56:12;99041.41;;;20.46;100.00
50734;BME280;36701;51.798;19.474;2022-07-12T09:58:40;99029.25;;;20.29;100.00
50734;BME280;36701;51.798;19.474;2022-07-12T10:01:11;99025.94;;;20.41;100.00
50734;BME280;36701;51.798;19.474;2022-07-12T10:03:40;98967.19;;;19.90;100.00
50734;BME280;36701;51.798;19.474;2022-07-12T10:06:07;99031.94;;;20.52;100.00
50734;BME280;36701;51.798;19.474;2022-07-12T10:08:34;98997.69;;;20.55;100.00
50734;BME280;36701;51.798;19.474;2022-07-12T10:11:01;99041.09;;;20.47;100.00
50734;BME280;36701;51.798;19.474;2022-07-12T10:13:28;99064.53;;;20.40;100.00
50734;BME280;36701;51.798;19.474;2022-07-12T10:15:59;99041.47;;;20.23;100.00
50734;BME280;36701;51.798;19.474;2022-07-12T10:18:27;99068.00;;;20.54;100.00
50734;BME280;36701;51.798;19.474;2022-07-12T10:20:54;99032.03;;;20.70;100.00
50734;BME280;36701;51.798;19.474;2022-07-12T10:23:31;99048.50;;;20.87;100.00
50734;BME280;36701;51.798;19.474;2022-07-12T10:26:07;99047.84;;;20.81;100.00
50734;BME280;36701;51.798;19.474;2022-07-12T10:29:02;99043.38;;;20.94;100.00
50734;BME280;36701;51.798;19.474;2022-07-12T10:31:34;99061.34;;;20.78;100.00
50734;BME280;36701;51.798;19.474;2022-07-12T10:34:20;99074.19;;;20.68;100.00
50734;BME280;36701;51.798;19.474;2022-07-12T10:39:27;99046.88;;;20.86;100.00
50734;BME280;36701;51.798;19.474;2022-07-12T10:44:37;99048.16;;;20.80;100.00
50734;BME280;36701;51.798;19.474;2022-07-12T10:47:05;99038.09;;;21.07;100.00
50734;BME280;36701;51.798;19.474;2022-07-12T10:49:46;99018.50;;;20.64;95.26
50734;BME280;36701;51.798;19.474;2022-07-12T10:52:15;99035.03;;;20.59;93.32
50734;BME280;36701;51.798;19.474;2022-07-12T10:54:46;98999.75;;;20.49;90.87
50734;BME280;36701;51.798;19.474;2022-07-12T10:57:44;99011.31;;;20.86;89.22
50734;BME280;36701;51.798;19.474;2022-07-12T11:00:13;99032.63;;;21.15;79.95
50734;BME280;36701;51.798;19.474;2022-07-12T11:02:40;99040.69;;;21.38;79.69
50734;BME280;36701;51.798;19.474;2022-07-12T11:05:32;98989.00;;;21.19;83.98
50734;BME280;36701;51.798;19.474;2022-07-12T11:08:00;99047.31;;;21.46;79.10
50734;BME280;36701;51.798;19.474;2022-07-12T11:10:26;99036.34;;;21.46;76.33
50734;BME280;36701;51.798;19.474;2022-07-12T11:12:52;99022.84;;;21.58;64.02
50734;BME280;36701;51.798;19.474;2022-07-12T11:15:19;99028.91;;;21.20;60.88
50734;BME280;36701;51.798;19.474;2022-07-12T11:17:52;99039.63;;;21.65;62.71
50734;BME280;36701;51.798;19.474;2022-07-12T11:20:18;99047.97;;;21.60;58.80
50734;BME280;36701;51.798;19.474;2022-07-12T11:22:45;99030.91;;;21.63;56.91
50734;BME280;36701;51.798;19.474;2022-07-12T11:25:12;99033.78;;;21.75;57.78
50734;BME280;36701;51.798;19.474;2022-07-12T11:27:39;99034.59;;;21.76;55.54
50734;BME280;36701;51.798;19.474;2022-07-12T11:30:06;98951.59;;;21.40;59.19
50734;BME280;36701;51.798;19.474;2022-07-12T11:32:39;98987.22;;;21.75;61.32
50734;BME280;36701;51.798;19.474;2022-07-12T11:35:23;99026.34;;;22.02;61.39
50734;BME280;36701;51.798;19.474;2022-07-12T11:37:53;99021.66;;;22.59;56.75
50734;BME280;36701;51.798;19.474;2022-07-12T11:40:25;99013.59;;;22.54;60.21
50734;BME280;36701;51.798;19.474;2022-07-12T11:43:02;99011.56;;;22.72;63.28
50734;BME280;36701;51.798;19.474;2022-07-12T11:45:32;99014.75;;;22.82;62.18
50734;BME280;36701;51.798;19.474;2022-07-12T11:48:02;99031.69;;;22.55;64.42
50734;BME280;36701;51.798;19.474;2022-07-12T11:50:30;99012.81;;;22.53;68.36
50734;BME280;36701;51.798;19.474;2022-07-12T11:52:56;98981.34;;;22.51;68.79
50734;BME280;36701;51.798;19.474;2022-07-12T11:55:23;99004.66;;;22.65;66.99
50734;BME280;36701;51.798;19.474;2022-07-12T11:57:50;98955.00;;;22.58;67.37
50734;BME280;36701;51.798;19.474;2022-07-12T12:00:21;98996.38;;;22.44;64.58
50734;BME280;36701;51.798;19.474;2022-07-12T12:02:52;99009.16;;;22.40;67.46
50734;BME280;36701;51.798;19.474;2022-07-12T12:05:20;98986.44;;;22.22;70.64
50734;BME280;36701;51.798;19.474;2022-07-12T12:07:47;98996.25;;;22.32;74.37
50734;BME280;36701;51.798;19.474;2022-07-12T12:10:15;98998.19;;;22.40;75.83
50734;BME280;36701;51.798;19.474;2022-07-12T12:15:15;98986.56;;;22.43;76.77
50734;BME280;36701;51.798;19.474;2022-07-12T12:18:03;98972.34;;;22.41;73.01
50734;BME280;36701;51.798;19.474;2022-07-12T12:20:35;98995.81;;;22.21;79.82
50734;BME280;36701;51.798;19.474;2022-07-12T12:23:04;98961.34;;;22.03;81.97
50734;BME280;36701;51.798;19.474;2022-07-12T12:25:31;98993.06;;;22.30;74.52
50734;BME280;36701;51.798;19.474;2022-07-12T12:27:59;98985.78;;;22.25;76.17
50734;BME280;36701;51.798;19.474;2022-07-12T12:30:32;98977.78;;;22.11;78.80
50734;BME280;36701;51.798;19.474;2022-07-12T12:33:01;98942.37;;;22.36;83.44
50734;BME280;36701;51.798;19.474;2022-07-12T12:35:35;98983.03;;;22.34;76.41
50734;BME280;36701;51.798;19.474;2022-07-12T12:38:13;98973.69;;;22.18;76.00
50734;BME280;36701;51.798;19.474;2022-07-12T12:40:41;98993.22;;;22.25;76.30
50734;BME280;36701;51.798;19.474;2022-07-12T12:43:20;98990.81;;;22.14;80.29
50734;BME280;36701;51.798;19.474;2022-07-12T12:45:54;98965.00;;;22.16;79.65
50734;BME280;36701;51.798;19.474;2022-07-12T12:48:23;98976.09;;;22.28;76.09
50734;BME280;36701;51.798;19.474;2022-07-12T12:51:04;98920.81;;;21.70;77.97
50734;BME280;36701;51.798;19.474;2022-07-12T12:53:31;98927.50;;;21.99;78.85
50734;BME280;36701;51.798;19.474;2022-07-12T12:55:58;98965.28;;;22.40;80.96
50734;BME280;36701;51.798;19.474;2022-07-12T12:58:25;98971.59;;;22.62;77.25
50734;BME280;36701;51.798;19.474;2022-07-12T13:00:53;98965.28;;;22.40;79.60
50734;BME280;36701;51.798;19.474;2022-07-12T13:03:22;98935.09;;;22.40;78.62
50734;BME280;36701;51.798;19.474;2022-07-12T13:05:50;98958.91;;;22.78;82.08